Time;durP1;ratioP1;P1;durP2;ratioP2;P2;SDS_P1;SDS_P2;PMS_P1;PMS_P2;Temp;Humidity;BMP_temperature;BMP_pressure;BME280_temperature;BME280_humidity;BME280_pressure;Samples;Min_cycle;Max_cycle;Signal;HPM_P1;HPM_P2
2021/10/15 00:01:36;;;;;;;;;;;21.20;50.50;;;;;;499809;238;1226;-47
2021/10/15 00:03:37;;;;;;;;;;;21.20;50.60;;;;;;499912;238;1289;-48
2021/10/15 00:05:38;;;;;;;;;;;21.20;50.50;;;;;;500209;238;1089;-48
2021/10/15 00:07:39;;;;;;;;;;;21.20;50.60;;;;;;499962;238;1165;-47
2021/10/15 00:09:41;;;;;;;;;;;21.20;50.60;;;;;;500242;238;1037;-48
2021/10/15 00:11:45;;;;;;;;;;;21.20;50.60;;;;;;500164;235;1346;-47
2021/10/15 00:13:44;;;;;;;;;;;21.20;50.50;;;;;;499714;238;2059;-47
2021/10/15 00:15:45;;;;;;;;;;;21.20;50.50;;;;;;500194;238;1044;-48
2021/10/15 00:17:46;;;;;;;;;;;21.20;50.50;;;;;;500122;234;1271;-48
2021/10/15 00:19:47;;;;;;;;;;;21.20;50.60;;;;;;499916;238;2176;-47
2021/10/15 00:21:49;;;;;;;;;;;21.20;50.60;;;;;;499861;238;1052;-47
2021/10/15 00:23:50;;;;;;;;;;;21.20;50.50;;;;;;499962;238;1043;-48
2021/10/15 00:25:51;;;;;;;;;;;21.20;50.50;;;;;;499964;238;1157;-48
2021/10/15 00:27:53;;;;;;;;;;;21.20;50.50;;;;;;499861;238;1096;-47
2021/10/15 00:29:54;;;;;;;;;;;21.20;50.60;;;;;;500072;238;1068;-47
2021/10/15 00:31:55;;;;;;;;;;;21.20;50.60;;;;;;500068;238;1160;-48
2021/10/15 00:33:57;;;;;;;;;;;21.20;50.60;;;;;;499887;238;1134;-48
2021/10/15 00:35:58;;;;;;;;;;;21.20;50.50;;;;;;500350;238;1512;-48
2021/10/15 00:37:59;;;;;;;;;;;21.20;50.60;;;;;;500089;238;1195;-48
2021/10/15 00:40:01;;;;;;;;;;;21.20;50.50;;;;;;499931;238;2175;-48
2021/10/15 00:42:02;;;;;;;;;;;21.20;50.60;;;;;;499877;238;1220;-48
2021/10/15 00:44:03;;;;;;;;;;;21.20;50.60;;;;;;500251;238;1132;-48
2021/10/15 00:46:05;;;;;;;;;;;21.20;50.60;;;;;;500196;238;1344;-48
2021/10/15 00:48:06;;;;;;;;;;;21.20;50.50;;;;;;500150;238;1201;-48
2021/10/15 00:50:07;;;;;;;;;;;21.20;50.50;;;;;;500389;238;1100;-48
2021/10/15 00:52:09;;;;;;;;;;;21.20;50.50;;;;;;500078;238;1209;-48
2021/10/15 00:54:10;;;;;;;;;;;21.20;50.60;;;;;;499871;238;1290;-48
2021/10/15 00:56:11;;;;;;;;;;;21.20;50.50;;;;;;499830;238;1354;-48
2021/10/15 00:58:13;;;;;;;;;;;21.20;50.50;;;;;;500246;238;1258;-48
2021/10/15 01:00:14;;;;;;;;;;;21.20;50.50;;;;;;500346;238;2117;-47
2021/10/15 01:02:15;;;;;;;;;;;21.20;50.50;;;;;;500183;238;1387;-48
2021/10/15 01:04:16;;;;;;;;;;;21.20;50.50;;;;;;499968;238;1201;-48
2021/10/15 01:06:18;;;;;;;;;;;21.20;50.50;;;;;;499929;238;1331;-48
2021/10/15 01:08:19;;;;;;;;;;;21.20;50.50;;;;;;500320;238;1075;-47
2021/10/15 01:10:20;;;;;;;;;;;21.20;50.50;;;;;;499849;238;1231;-48
2021/10/15 01:12:22;;;;;;;;;;;21.20;50.50;;;;;;499988;238;1219;-48
2021/10/15 01:14:23;;;;;;;;;;;21.20;50.50;;;;;;499920;238;1072;-47
2021/10/15 01:16:25;;;;;;;;;;;21.20;50.50;;;;;;500342;238;1160;-48
2021/10/15 01:18:26;;;;;;;;;;;21.20;50.50;;;;;;500142;238;1228;-47
2021/10/15 01:20:27;;;;;;;;;;;21.20;50.50;;;;;;499887;238;2207;-48
2021/10/15 01:22:29;;;;;;;;;;;21.20;50.50;;;;;;500034;238;1208;-47
2021/10/15 01:24:32;;;;;;;;;;;21.20;50.50;;;;;;499961;238;1034;-48
2021/10/15 01:26:31;;;;;;;;;;;21.20;50.50;;;;;;499795;238;2177;-47
2021/10/15 01:28:33;;;;;;;;;;;21.20;50.50;;;;;;500406;238;1200;-48
2021/10/15 01:30:34;;;;;;;;;;;21.20;50.50;;;;;;499899;238;1037;-48
2021/10/15 01:32:35;;;;;;;;;;;21.20;50.50;;;;;;499921;238;1171;-47
2021/10/15 01:34:37;;;;;;;;;;;21.20;50.60;;;;;;500005;237;1151;-47
2021/10/15 01:36:39;;;;;;;;;;;21.20;50.50;;;;;;499839;238;1337;-48
2021/10/15 01:38:39;;;;;;;;;;;21.20;50.50;;;;;;499971;238;2170;-48
2021/10/15 01:40:40;;;;;;;;;;;21.20;50.40;;;;;;500261;238;2113;-48
2021/10/15 01:42:54;;;;;;;;;;;21.20;50.40;;;;;;499841;238;1136;-47
2021/10/15 01:44:55;;;;;;;;;;;21.20;50.40;;;;;;499912;238;1069;-47
2021/10/15 01:46:57;;;;;;;;;;;21.20;50.50;;;;;;500077;234;1456;-47
2021/10/15 01:48:58;;;;;;;;;;;21.20;50.50;;;;;;499955;238;1205;-48
2021/10/15 01:50:59;;;;;;;;;;;21.20;50.40;;;;;;499875;238;1114;-48
2021/10/15 01:53:01;;;;;;;;;;;21.20;50.50;;;;;;500316;238;1236;-47
2021/10/15 01:55:02;;;;;;;;;;;21.20;50.50;;;;;;500410;238;1033;-48
2021/10/15 01:57:03;;;;;;;;;;;21.30;50.50;;;;;;500120;238;1043;-48
2021/10/15 01:59:05;;;;;;;;;;;21.20;50.40;;;;;;500413;238;2176;-48
2021/10/15 02:01:06;;;;;;;;;;;21.20;50.40;;;;;;500014;238;1022;-47
2021/10/15 02:03:07;;;;;;;;;;;21.20;50.50;;;;;;499911;238;1080;-48
2021/10/15 02:05:08;;;;;;;;;;;21.20;50.50;;;;;;499906;238;1190;-47
2021/10/15 02:07:10;;;;;;;;;;;21.20;50.50;;;;;;499890;238;1041;-47
2021/10/15 02:09:11;;;;;;;;;;;21.20;50.50;;;;;;500427;238;1038;-48
2021/10/15 02:11:12;;;;;;;;;;;21.20;50.50;;;;;;500056;238;1131;-48
2021/10/15 02:13:14;;;;;;;;;;;21.20;50.50;;;;;;500250;238;1035;-48
2021/10/15 02:15:15;;;;;;;;;;;21.20;50.60;;;;;;500261;238;1068;-48
2021/10/15 02:17:16;;;;;;;;;;;21.20;50.50;;;;;;499924;238;1018;-48
2021/10/15 02:19:18;;;;;;;;;;;21.20;50.60;;;;;;500001;238;2180;-48
2021/10/15 02:21:19;;;;;;;;;;;21.20;50.50;;;;;;500025;238;1214;-48
2021/10/15 02:23:20;;;;;;;;;;;21.20;50.40;;;;;;499907;238;1052;-48
2021/10/15 02:25:22;;;;;;;;;;;21.20;50.50;;;;;;500325;238;1304;-47
2021/10/15 02:27:23;;;;;;;;;;;21.20;50.50;;;;;;499818;238;1223;-47
2021/10/15 02:29:24;;;;;;;;;;;21.20;50.50;;;;;;500408;238;1202;-48
2021/10/15 02:31:26;;;;;;;;;;;21.20;50.40;;;;;;499893;238;1286;-48
2021/10/15 02:33:27;;;;;;;;;;;21.20;50.40;;;;;;499889;238;1053;-48
2021/10/15 02:35:28;;;;;;;;;;;21.20;50.30;;;;;;499893;238;1180;-48
2021/10/15 02:37:30;;;;;;;;;;;21.20;50.40;;;;;;499899;238;1082;-48
2021/10/15 02:39:31;;;;;;;;;;;21.20;50.40;;;;;;499900;238;2189;-48
2021/10/15 02:41:34;;;;;;;;;;;21.20;50.40;;;;;;500344;235;1155;-48
2021/10/15 02:43:33;;;;;;;;;;;21.20;50.50;;;;;;499986;238;2432;-47
2021/10/15 02:45:37;;;;;;;;;;;21.20;50.50;;;;;;500013;238;1075;-48
2021/10/15 02:47:37;;;;;;;;;;;21.20;50.50;;;;;;499763;238;2094;-47
2021/10/15 02:49:38;;;;;;;;;;;21.20;50.50;;;;;;500139;238;1177;-47
2021/10/15 02:51:39;;;;;;;;;;;21.20;50.40;;;;;;499829;238;1273;-47
2021/10/15 02:53:41;;;;;;;;;;;21.20;50.50;;;;;;500277;238;1003;-48
2021/10/15 02:55:42;;;;;;;;;;;21.20;50.50;;;;;;499855;238;1152;-48
2021/10/15 02:57:43;;;;;;;;;;;21.20;50.50;;;;;;500344;238;1035;-47
2021/10/15 02:59:44;;;;;;;;;;;21.20;50.40;;;;;;500022;238;2112;-48
2021/10/15 03:01:46;;;;;;;;;;;21.20;50.50;;;;;;499741;238;1128;-48
2021/10/15 03:03:48;;;;;;;;;;;21.20;50.40;;;;;;499979;238;996;-47
2021/10/15 03:05:48;;;;;;;;;;;21.20;50.40;;;;;;499876;238;2367;-48
2021/10/15 03:07:50;;;;;;;;;;;21.20;50.40;;;;;;499849;238;1154;-47
2021/10/15 03:09:51;;;;;;;;;;;21.20;50.50;;;;;;499945;238;977;-48
2021/10/15 03:11:52;;;;;;;;;;;21.20;50.50;;;;;;499886;238;1212;-47
2021/10/15 03:13:54;;;;;;;;;;;21.20;50.50;;;;;;499946;238;1039;-48
2021/10/15 03:15:55;;;;;;;;;;;21.20;50.50;;;;;;500377;238;1393;-48
2021/10/15 03:17:56;;;;;;;;;;;21.20;50.50;;;;;;500167;238;1073;-47
2021/10/15 03:19:58;;;;;;;;;;;21.20;50.40;;;;;;500166;238;2184;-48
2021/10/15 03:21:59;;;;;;;;;;;21.20;50.50;;;;;;500196;238;1326;-48
2021/10/15 03:24:00;;;;;;;;;;;21.20;50.40;;;;;;500219;238;1026;-47
2021/10/15 03:26:02;;;;;;;;;;;21.20;50.40;;;;;;500109;238;1648;-47
2021/10/15 03:28:03;;;;;;;;;;;21.20;50.50;;;;;;499921;238;1252;-47
2021/10/15 03:30:04;;;;;;;;;;;21.20;50.40;;;;;;500313;238;1056;-47
2021/10/15 03:32:06;;;;;;;;;;;21.20;50.40;;;;;;499952;238;1226;-48
2021/10/15 03:34:07;;;;;;;;;;;21.20;50.40;;;;;;499905;238;1044;-48
2021/10/15 03:36:08;;;;;;;;;;;21.20;50.50;;;;;;499963;238;1238;-47
2021/10/15 03:38:10;;;;;;;;;;;21.20;50.40;;;;;;499889;238;1143;-48
2021/10/15 03:40:11;;;;;;;;;;;21.20;50.50;;;;;;500335;238;2184;-47
2021/10/15 03:42:12;;;;;;;;;;;21.20;50.40;;;;;;499853;238;1234;-47
2021/10/15 03:44:13;;;;;;;;;;;21.20;50.50;;;;;;500061;238;1072;-47
2021/10/15 03:46:15;;;;;;;;;;;21.20;50.50;;;;;;499836;238;1159;-47
2021/10/15 03:48:16;;;;;;;;;;;21.20;50.50;;;;;;499845;238;1017;-48
2021/10/15 03:50:18;;;;;;;;;;;21.20;50.40;;;;;;500004;238;1171;-48
2021/10/15 03:52:19;;;;;;;;;;;21.20;50.40;;;;;;499883;238;1422;-48
2021/10/15 03:54:20;;;;;;;;;;;21.20;50.40;;;;;;500003;238;1037;-48
2021/10/15 03:56:22;;;;;;;;;;;21.20;50.40;;;;;;499787;238;1218;-47
2021/10/15 03:58:23;;;;;;;;;;;21.20;50.40;;;;;;500318;238;1040;-48
2021/10/15 04:00:24;;;;;;;;;;;21.20;50.40;;;;;;500156;238;2176;-47
2021/10/15 04:02:26;;;;;;;;;;;21.20;50.50;;;;;;499821;238;1226;-48
2021/10/15 04:04:28;;;;;;;;;;;21.20;50.40;;;;;;499862;238;1065;-48
2021/10/15 04:06:29;;;;;;;;;;;21.20;50.40;;;;;;499906;238;2395;-48
2021/10/15 04:08:30;;;;;;;;;;;21.20;50.40;;;;;;499899;238;1014;-48
2021/10/15 04:10:31;;;;;;;;;;;21.20;50.50;;;;;;499987;238;1053;-48
2021/10/15 04:12:33;;;;;;;;;;;21.20;50.40;;;;;;499789;238;1343;-47
2021/10/15 04:14:34;;;;;;;;;;;21.20;50.40;;;;;;500393;238;1033;-48
2021/10/15 04:16:35;;;;;;;;;;;21.10;50.50;;;;;;500169;238;1186;-47
2021/10/15 04:18:37;;;;;;;;;;;21.10;50.50;;;;;;499964;238;1109;-48
2021/10/15 04:20:39;;;;;;;;;;;21.20;50.40;;;;;;499696;238;2177;-47
2021/10/15 04:22:39;;;;;;;;;;;21.20;50.40;;;;;;499579;238;1670;-48
2021/10/15 04:24:41;;;;;;;;;;;21.20;50.40;;;;;;499796;238;1059;-47
2021/10/15 04:26:42;;;;;;;;;;;21.10;50.40;;;;;;500092;238;1309;-48
2021/10/15 04:28:43;;;;;;;;;;;21.20;50.40;;;;;;499865;238;1023;-47
2021/10/15 04:30:44;;;;;;;;;;;21.20;50.50;;;;;;500051;238;1220;-48
2021/10/15 04:32:46;;;;;;;;;;;21.20;50.50;;;;;;499779;238;1157;-48
2021/10/15 04:34:47;;;;;;;;;;;21.20;50.40;;;;;;499889;238;1048;-48
2021/10/15 04:36:49;;;;;;;;;;;21.20;50.40;;;;;;499778;238;1221;-48
2021/10/15 04:38:50;;;;;;;;;;;21.20;50.30;;;;;;499883;238;1043;-47
2021/10/15 04:40:51;;;;;;;;;;;21.20;50.30;;;;;;499736;238;2176;-47
2021/10/15 04:42:52;;;;;;;;;;;21.20;50.40;;;;;;500246;238;1143;-48
2021/10/15 04:44:54;;;;;;;;;;;21.20;50.40;;;;;;500147;238;982;-47
2021/10/15 04:46:55;;;;;;;;;;;21.20;50.40;;;;;;499651;238;1183;-47
2021/10/15 04:48:56;;;;;;;;;;;21.20;50.30;;;;;;499785;238;1293;-48
2021/10/15 04:50:58;;;;;;;;;;;21.20;50.40;;;;;;499745;238;1263;-48
2021/10/15 04:52:59;;;;;;;;;;;21.10;50.40;;;;;;499925;238;1186;-48
2021/10/15 04:55:00;;;;;;;;;;;21.20;50.40;;;;;;500273;238;1061;-48
2021/10/15 04:57:02;;;;;;;;;;;21.10;50.50;;;;;;500212;234;1484;-48
2021/10/15 04:59:03;;;;;;;;;;;21.20;50.40;;;;;;499801;238;1063;-48
2021/10/15 05:01:04;;;;;;;;;;;21.20;50.40;;;;;;499599;238;2180;-48
2021/10/15 05:03:06;;;;;;;;;;;21.20;50.40;;;;;;499606;238;1207;-47
2021/10/15 05:05:08;;;;;;;;;;;21.20;50.30;;;;;;499716;238;1019;-48
2021/10/15 05:07:09;;;;;;;;;;;21.20;50.40;;;;;;499583;238;1289;-48
2021/10/15 05:09:25;;;;;;;;;;;21.20;50.40;;;;;;499641;238;1099;-48
2021/10/15 05:11:17;;;;;;;;;;;21.20;50.30;;;;;;498919;238;2120;-48
2021/10/15 05:13:18;;;;;;;;;;;21.20;50.30;;;;;;499851;238;1140;-48
2021/10/15 05:15:19;;;;;;;;;;;21.20;50.40;;;;;;499550;238;1130;-47
2021/10/15 05:17:21;;;;;;;;;;;21.20;50.40;;;;;;499454;235;1284;-48
2021/10/15 05:19:22;;;;;;;;;;;21.20;50.30;;;;;;499581;238;1081;-48
2021/10/15 05:21:24;;;;;;;;;;;21.20;50.30;;;;;;499539;238;2121;-48
2021/10/15 05:23:25;;;;;;;;;;;21.20;50.30;;;;;;499746;238;1102;-48
2021/10/15 05:25:26;;;;;;;;;;;21.20;50.30;;;;;;499728;238;1027;-47
2021/10/15 05:27:27;;;;;;;;;;;21.20;50.30;;;;;;499584;238;1213;-48
2021/10/15 05:29:29;;;;;;;;;;;21.20;50.30;;;;;;499671;238;1009;-48
2021/10/15 05:31:30;;;;;;;;;;;21.20;50.30;;;;;;499706;238;1177;-48
2021/10/15 05:33:32;;;;;;;;;;;21.20;50.30;;;;;;499548;238;1050;-48
2021/10/15 05:35:33;;;;;;;;;;;21.20;50.30;;;;;;499735;238;980;-48
2021/10/15 05:37:34;;;;;;;;;;;21.20;50.20;;;;;;499618;238;1161;-47
2021/10/15 05:39:35;;;;;;;;;;;21.20;50.30;;;;;;499614;238;1045;-48
2021/10/15 05:41:37;;;;;;;;;;;21.20;50.30;;;;;;499493;238;2125;-48
2021/10/15 05:43:38;;;;;;;;;;;21.20;50.30;;;;;;499619;238;1092;-48
2021/10/15 05:45:39;;;;;;;;;;;21.20;50.20;;;;;;499839;238;1041;-47
2021/10/15 05:47:41;;;;;;;;;;;21.20;50.40;;;;;;499623;238;1391;-48
2021/10/15 05:49:42;;;;;;;;;;;21.20;50.30;;;;;;499492;238;1056;-48
2021/10/15 05:51:47;;;;;;;;;;;21.20;50.30;;;;;;499406;238;1300;-48
2021/10/15 05:53:46;;;;;;;;;;;21.20;50.30;;;;;;499124;238;2305;-48
2021/10/15 05:56:00;;;;;;;;;;;21.20;50.20;;;;;;499348;238;1692;-47
2021/10/15 06:00:28;;;;;;;;;;;21.20;50.30;;;;;;499434;238;2168;-48
2021/10/15 06:02:33;;;;;;;;;;;21.20;50.30;;;;;;499514;238;1113;-48
2021/10/15 06:14:22;;;;;;;;;;;21.20;50.20;;;;;;499317;238;1059;-48
2021/10/15 06:16:24;;;;;;;;;;;21.20;50.20;;;;;;499087;238;2387;-48
2021/10/15 06:18:24;;;;;;;;;;;21.20;50.10;;;;;;499279;238;2198;-47
2021/10/15 06:20:25;;;;;;;;;;;21.20;50.20;;;;;;499066;238;2281;-48
2021/10/15 06:22:26;;;;;;;;;;;21.20;50.20;;;;;;499106;238;1229;-48
2021/10/15 06:24:27;;;;;;;;;;;21.20;50.30;;;;;;499306;238;984;-48
2021/10/15 06:26:29;;;;;;;;;;;21.20;50.20;;;;;;499259;238;1163;-47
2021/10/15 06:28:30;;;;;;;;;;;21.20;50.20;;;;;;499278;238;1219;-48
2021/10/15 06:30:31;;;;;;;;;;;21.20;50.20;;;;;;499478;238;1157;-47
2021/10/15 06:32:33;;;;;;;;;;;21.20;50.20;;;;;;499155;238;1234;-48
2021/10/15 06:34:34;;;;;;;;;;;21.20;50.20;;;;;;499409;238;1070;-47
2021/10/15 06:36:36;;;;;;;;;;;21.20;50.20;;;;;;499214;238;1196;-47
2021/10/15 06:38:37;;;;;;;;;;;21.20;50.10;;;;;;499160;238;1217;-47
2021/10/15 06:40:38;;;;;;;;;;;21.20;50.10;;;;;;499256;238;2179;-47
2021/10/15 06:42:40;;;;;;;;;;;21.20;50.10;;;;;;499181;238;1234;-47
2021/10/15 06:44:41;;;;;;;;;;;21.20;50.10;;;;;;499295;238;1026;-47
2021/10/15 06:46:42;;;;;;;;;;;21.20;50.10;;;;;;499147;238;1277;-48
2021/10/15 06:48:44;;;;;;;;;;;21.20;50.00;;;;;;499188;238;1075;-47
2021/10/15 06:50:45;;;;;;;;;;;21.30;49.90;;;;;;498988;238;1118;-48
2021/10/15 06:52:49;;;;;;;;;;;21.20;50.00;;;;;;498998;238;1357;-48
2021/10/15 06:54:50;;;;;;;;;;;21.30;50.00;;;;;;499152;238;1070;-47
2021/10/15 06:56:52;;;;;;;;;;;21.30;50.00;;;;;;498966;237;1342;-48
2021/10/15 06:58:53;;;;;;;;;;;21.20;50.00;;;;;;499074;238;1129;-47
2021/10/15 07:00:54;;;;;;;;;;;21.20;50.00;;;;;;498991;238;2192;-47
2021/10/15 07:02:56;;;;;;;;;;;21.20;50.00;;;;;;499002;238;1164;-48
2021/10/15 07:04:57;;;;;;;;;;;21.30;50.00;;;;;;498951;238;1106;-47
2021/10/15 07:06:58;;;;;;;;;;;21.20;50.00;;;;;;498817;238;1554;-48
2021/10/15 07:09:00;;;;;;;;;;;21.20;50.10;;;;;;499082;238;1163;-48
2021/10/15 07:11:01;;;;;;;;;;;21.20;50.10;;;;;;499148;238;1382;-48
2021/10/15 07:13:02;;;;;;;;;;;21.20;50.10;;;;;;499109;238;1052;-48
2021/10/15 07:15:04;;;;;;;;;;;21.20;50.20;;;;;;499028;238;1161;-48
2021/10/15 07:17:05;;;;;;;;;;;21.20;50.20;;;;;;498928;238;1246;-48
2021/10/15 07:19:06;;;;;;;;;;;21.20;50.20;;;;;;498763;238;1285;-47
2021/10/15 07:21:07;;;;;;;;;;;21.20;50.20;;;;;;499313;238;2208;-48
2021/10/15 07:23:09;;;;;;;;;;;21.20;50.20;;;;;;499114;238;1335;-48
2021/10/15 07:25:10;;;;;;;;;;;21.20;50.10;;;;;;499145;238;1131;-48
2021/10/15 07:27:11;;;;;;;;;;;21.20;50.10;;;;;;499657;238;1180;-47
2021/10/15 07:29:13;;;;;;;;;;;21.20;50.20;;;;;;499041;238;1055;-48
2021/10/15 07:31:14;;;;;;;;;;;21.20;50.20;;;;;;499060;238;1227;-47
2021/10/15 07:33:15;;;;;;;;;;;21.20;50.20;;;;;;499064;238;1166;-47
2021/10/15 07:35:17;;;;;;;;;;;21.20;50.20;;;;;;498970;238;1097;-48
2021/10/15 07:37:18;;;;;;;;;;;21.20;50.10;;;;;;498910;238;1235;-47
2021/10/15 07:39:19;;;;;;;;;;;21.20;50.10;;;;;;498861;238;1196;-48
2021/10/15 07:41:21;;;;;;;;;;;21.30;50.10;;;;;;498651;238;2184;-48
2021/10/15 07:43:22;;;;;;;;;;;21.20;50.00;;;;;;498784;238;1204;-47
2021/10/15 07:45:26;;;;;;;;;;;21.30;50.00;;;;;;499693;238;1047;-48
2021/10/15 07:47:25;;;;;;;;;;;21.30;50.00;;;;;;499184;238;1615;-48
2021/10/15 07:49:27;;;;;;;;;;;21.30;50.00;;;;;;499784;238;840;-48
2021/10/15 07:51:28;;;;;;;;;;;21.30;50.00;;;;;;499108;238;1100;-47
2021/10/15 07:53:29;;;;;;;;;;;21.30;49.90;;;;;;499282;238;1128;-47
2021/10/15 07:55:31;;;;;;;;;;;21.30;50.00;;;;;;499331;238;1091;-47
2021/10/15 07:57:32;;;;;;;;;;;21.20;50.00;;;;;;498963;238;1471;-47
2021/10/15 07:59:33;;;;;;;;;;;21.30;50.00;;;;;;499036;238;1269;-48
2021/10/15 08:01:34;;;;;;;;;;;21.30;49.90;;;;;;498670;238;2204;-48
2021/10/15 08:03:36;;;;;;;;;;;21.30;50.00;;;;;;499220;238;1040;-48
2021/10/15 08:05:37;;;;;;;;;;;21.30;50.00;;;;;;499733;238;1163;-48
2021/10/15 08:07:38;;;;;;;;;;;21.30;50.00;;;;;;499735;238;1147;-48
2021/10/15 08:09:40;;;;;;;;;;;21.30;50.00;;;;;;499403;238;1205;-48
2021/10/15 08:11:41;;;;;;;;;;;21.30;50.00;;;;;;499096;238;1392;-48
2021/10/15 08:13:42;;;;;;;;;;;21.30;49.90;;;;;;499096;238;1065;-48
2021/10/15 08:15:44;;;;;;;;;;;21.30;49.90;;;;;;499101;238;1113;-47
2021/10/15 08:17:45;;;;;;;;;;;21.30;50.00;;;;;;498975;235;1314;-48
2021/10/15 08:19:46;;;;;;;;;;;21.30;49.90;;;;;;498904;238;1277;-48
2021/10/15 08:21:48;;;;;;;;;;;21.30;49.90;;;;;;498790;238;2168;-48
2021/10/15 08:23:49;;;;;;;;;;;21.30;49.90;;;;;;498860;238;1232;-47
2021/10/15 08:25:50;;;;;;;;;;;21.30;49.90;;;;;;498782;238;1225;-47
2021/10/15 08:27:51;;;;;;;;;;;21.30;49.90;;;;;;498895;238;1092;-47
2021/10/15 08:29:53;;;;;;;;;;;21.30;49.90;;;;;;498974;238;1121;-47
2021/10/15 08:31:54;;;;;;;;;;;21.30;49.90;;;;;;498920;238;1275;-47
2021/10/15 08:33:56;;;;;;;;;;;21.30;49.80;;;;;;498884;238;1274;-48
2021/10/15 08:35:57;;;;;;;;;;;21.30;49.80;;;;;;498888;238;1221;-48
2021/10/15 08:37:58;;;;;;;;;;;21.30;49.80;;;;;;498594;238;1321;-48
2021/10/15 08:40:01;;;;;;;;;;;21.30;49.80;;;;;;498975;238;1234;-48
2021/10/15 08:42:01;;;;;;;;;;;21.30;49.80;;;;;;498652;238;2180;-48
2021/10/15 08:44:03;;;;;;;;;;;21.30;49.90;;;;;;498817;238;1082;-48
2021/10/15 08:46:04;;;;;;;;;;;21.30;49.90;;;;;;498445;238;1161;-48
2021/10/15 08:48:05;;;;;;;;;;;21.30;49.80;;;;;;498531;238;1098;-48
2021/10/15 08:50:06;;;;;;;;;;;21.30;49.90;;;;;;498485;238;1416;-48
2021/10/15 08:52:08;;;;;;;;;;;21.30;49.90;;;;;;498667;238;1139;-47
2021/10/15 08:54:09;;;;;;;;;;;21.30;49.70;;;;;;498619;238;1276;-48
2021/10/15 08:56:10;;;;;;;;;;;21.40;49.80;;;;;;498711;238;1167;-47
2021/10/15 08:58:12;;;;;;;;;;;21.40;49.80;;;;;;498798;238;1045;-48
2021/10/15 09:00:13;;;;;;;;;;;21.40;49.80;;;;;;498723;238;1103;-48
2021/10/15 09:02:14;;;;;;;;;;;21.40;49.70;;;;;;498317;238;2200;-47
2021/10/15 09:04:18;;;;;;;;;;;21.30;49.70;;;;;;497881;238;1187;-48
2021/10/15 09:06:18;;;;;;;;;;;21.40;49.80;;;;;;498788;238;2202;-48
2021/10/15 09:08:19;;;;;;;;;;;21.40;49.70;;;;;;499021;238;2196;-48
2021/10/15 09:10:21;;;;;;;;;;;21.40;49.70;;;;;;498898;238;1168;-48
2021/10/15 09:12:22;;;;;;;;;;;21.30;49.70;;;;;;498717;238;2126;-48
2021/10/15 09:14:23;;;;;;;;;;;21.40;49.70;;;;;;498793;238;2039;-47
2021/10/15 09:16:24;;;;;;;;;;;21.30;49.70;;;;;;498779;238;1183;-48
2021/10/15 09:18:30;;;;;;;;;;;21.40;49.80;;;;;;498874;238;1101;-48
2021/10/15 09:20:30;;;;;;;;;;;21.40;49.80;;;;;;498880;238;1573;-48
2021/10/15 09:22:32;;;;;;;;;;;21.40;49.80;;;;;;498870;238;2169;-48
2021/10/15 09:24:33;;;;;;;;;;;21.40;49.70;;;;;;498973;238;1179;-48
2021/10/15 09:26:35;;;;;;;;;;;21.40;49.70;;;;;;498768;238;1460;-48
2021/10/15 09:28:36;;;;;;;;;;;21.40;49.70;;;;;;498788;238;1075;-47
2021/10/15 09:30:37;;;;;;;;;;;21.40;49.70;;;;;;498809;238;1140;-48
2021/10/15 09:32:39;;;;;;;;;;;21.40;49.60;;;;;;498895;238;1059;-48
2021/10/15 09:34:40;;;;;;;;;;;21.30;49.70;;;;;;498571;238;1088;-47
2021/10/15 09:36:41;;;;;;;;;;;21.40;49.70;;;;;;498709;238;1481;-48
2021/10/15 09:38:43;;;;;;;;;;;21.40;49.70;;;;;;498743;238;1100;-48
2021/10/15 09:40:44;;;;;;;;;;;21.40;49.70;;;;;;498725;238;1235;-48
2021/10/15 09:42:45;;;;;;;;;;;21.40;49.70;;;;;;499355;238;2180;-48
2021/10/15 09:44:47;;;;;;;;;;;21.40;49.70;;;;;;499318;238;811;-48
2021/10/15 09:46:48;;;;;;;;;;;21.40;49.60;;;;;;499527;238;1041;-47
2021/10/15 09:48:49;;;;;;;;;;;21.40;49.60;;;;;;499623;238;1065;-48
2021/10/15 09:50:50;;;;;;;;;;;21.40;49.60;;;;;;499137;238;1078;-48
2021/10/15 09:52:52;;;;;;;;;;;21.40;49.70;;;;;;499690;238;1055;-48
2021/10/15 09:54:53;;;;;;;;;;;21.40;49.70;;;;;;499701;238;1173;-48
2021/10/15 09:56:54;;;;;;;;;;;21.40;49.70;;;;;;499831;238;1208;-48
2021/10/15 09:58:56;;;;;;;;;;;21.40;49.70;;;;;;499151;238;1134;-48
2021/10/15 10:00:57;;;;;;;;;;;21.40;49.60;;;;;;498868;238;1232;-47
2021/10/15 10:02:58;;;;;;;;;;;21.40;49.60;;;;;;498695;238;2183;-48
2021/10/15 10:05:00;;;;;;;;;;;21.40;49.70;;;;;;498667;238;1078;-48
2021/10/15 10:07:01;;;;;;;;;;;21.40;49.60;;;;;;498771;238;1151;-48
2021/10/15 10:09:02;;;;;;;;;;;21.40;49.70;;;;;;498790;238;1058;-47
2021/10/15 10:11:04;;;;;;;;;;;21.40;49.80;;;;;;498823;238;1261;-47
2021/10/15 10:13:05;;;;;;;;;;;21.40;49.70;;;;;;498798;238;1041;-48
2021/10/15 10:15:06;;;;;;;;;;;21.40;49.60;;;;;;498937;238;1204;-48
2021/10/15 10:17:09;;;;;;;;;;;21.40;49.60;;;;;;498710;238;1332;-48
2021/10/15 10:19:09;;;;;;;;;;;21.50;49.50;;;;;;499037;238;2321;-48
2021/10/15 10:21:12;;;;;;;;;;;21.40;49.60;;;;;;499145;238;1119;-48
2021/10/15 10:23:12;;;;;;;;;;;21.40;49.70;;;;;;499470;238;2180;-48
2021/10/15 10:25:13;;;;;;;;;;;21.40;49.70;;;;;;499380;238;1121;-48
2021/10/15 10:27:15;;;;;;;;;;;21.40;49.60;;;;;;499408;238;1182;-48
2021/10/15 10:29:16;;;;;;;;;;;21.40;49.60;;;;;;499420;237;837;-48
2021/10/15 10:31:17;;;;;;;;;;;21.40;49.70;;;;;;499739;238;1217;-48
2021/10/15 10:33:19;;;;;;;;;;;21.40;49.60;;;;;;499761;238;824;-47
2021/10/15 10:35:20;;;;;;;;;;;21.40;49.60;;;;;;499255;238;916;-48
2021/10/15 10:37:21;;;;;;;;;;;21.40;49.60;;;;;;499818;238;1189;-47
2021/10/15 10:39:23;;;;;;;;;;;21.40;49.70;;;;;;499834;238;813;-47
2021/10/15 10:41:26;;;;;;;;;;;21.40;49.70;;;;;;499424;238;1198;-48
2021/10/15 10:43:26;;;;;;;;;;;21.40;49.80;;;;;;499868;238;2207;-48
2021/10/15 10:45:27;;;;;;;;;;;21.30;49.80;;;;;;499899;238;872;-48
2021/10/15 10:47:29;;;;;;;;;;;21.30;49.80;;;;;;499414;238;1129;-48
2021/10/15 10:49:30;;;;;;;;;;;21.40;49.80;;;;;;499274;238;977;-48
2021/10/15 10:51:31;;;;;;;;;;;21.30;49.80;;;;;;499272;235;1107;-47
2021/10/15 10:53:33;;;;;;;;;;;21.30;49.70;;;;;;499910;238;1122;-48
2021/10/15 10:55:34;;;;;;;;;;;21.30;49.80;;;;;;499439;238;1249;-48
2021/10/15 10:57:35;;;;;;;;;;;21.30;49.90;;;;;;499077;238;1303;-47
2021/10/15 10:59:37;;;;;;;;;;;21.20;50.00;;;;;;499037;238;1055;-48
2021/10/15 11:01:38;;;;;;;;;;;21.30;50.00;;;;;;498863;238;1187;-48
2021/10/15 11:03:39;;;;;;;;;;;21.30;49.90;;;;;;498807;238;2267;-48
2021/10/15 11:05:41;;;;;;;;;;;21.30;49.90;;;;;;498997;238;1081;-48
2021/10/15 11:07:42;;;;;;;;;;;21.30;49.90;;;;;;499488;238;1921;-48
2021/10/15 11:09:43;;;;;;;;;;;21.30;49.90;;;;;;499099;238;1069;-48
2021/10/15 11:11:45;;;;;;;;;;;21.20;49.90;;;;;;498884;238;1511;-47
2021/10/15 11:13:46;;;;;;;;;;;21.20;50.00;;;;;;498916;238;1248;-48
2021/10/15 11:15:47;;;;;;;;;;;21.30;50.00;;;;;;499126;238;1056;-48
2021/10/15 11:17:48;;;;;;;;;;;21.30;49.90;;;;;;499168;238;1081;-47
2021/10/15 11:19:50;;;;;;;;;;;21.30;49.90;;;;;;499181;238;1319;-48
2021/10/15 11:21:51;;;;;;;;;;;21.30;50.00;;;;;;498954;238;1124;-48
2021/10/15 11:23:53;;;;;;;;;;;21.20;50.00;;;;;;499216;238;2120;-47
2021/10/15 11:25:54;;;;;;;;;;;21.20;50.00;;;;;;498810;238;1193;-48
2021/10/15 11:27:55;;;;;;;;;;;21.20;50.00;;;;;;498679;238;1122;-48
2021/10/15 11:29:57;;;;;;;;;;;21.20;50.00;;;;;;498790;238;1455;-47
2021/10/15 11:31:59;;;;;;;;;;;21.20;49.90;;;;;;498838;238;1233;-48
2021/10/15 11:33:59;;;;;;;;;;;21.20;50.00;;;;;;498887;238;2315;-48
2021/10/15 11:36:00;;;;;;;;;;;21.20;50.10;;;;;;498960;238;1266;-48
2021/10/15 11:38:02;;;;;;;;;;;21.20;50.00;;;;;;499207;238;1112;-47
2021/10/15 11:40:04;;;;;;;;;;;21.20;50.10;;;;;;498945;238;1196;-48
2021/10/15 11:42:05;;;;;;;;;;;21.20;50.10;;;;;;499074;238;1197;-48
2021/10/15 11:44:06;;;;;;;;;;;21.20;50.10;;;;;;499816;238;2172;-47
2021/10/15 11:46:08;;;;;;;;;;;21.20;50.10;;;;;;498952;238;1570;-47
2021/10/15 11:48:09;;;;;;;;;;;21.20;50.10;;;;;;499055;238;1142;-47
2021/10/15 11:50:10;;;;;;;;;;;21.20;50.20;;;;;;499050;238;1146;-48
2021/10/15 11:52:11;;;;;;;;;;;21.20;50.20;;;;;;499007;238;1216;-47
2021/10/15 11:54:13;;;;;;;;;;;21.20;50.10;;;;;;499073;238;1087;-48
2021/10/15 11:56:14;;;;;;;;;;;21.20;50.10;;;;;;498915;238;1305;-48
2021/10/15 11:58:15;;;;;;;;;;;21.20;50.10;;;;;;498867;238;1147;-47
2021/10/15 12:00:17;;;;;;;;;;;21.20;50.10;;;;;;498983;238;1039;-48
2021/10/15 12:02:18;;;;;;;;;;;21.20;50.00;;;;;;498803;238;2188;-47
2021/10/15 12:04:19;;;;;;;;;;;21.20;50.10;;;;;;498703;238;1099;-48
2021/10/15 12:06:22;;;;;;;;;;;21.20;50.10;;;;;;498963;234;1175;-48
2021/10/15 12:08:22;;;;;;;;;;;21.20;50.10;;;;;;498899;238;1637;-48
2021/10/15 12:10:23;;;;;;;;;;;21.20;50.10;;;;;;498960;238;1072;-47